createdAt,value
2018-09-06T00:00:35.852Z,8.40
2018-09-06T00:03:07.813Z,9.30
2018-09-06T00:05:39.552Z,9.00
2018-09-06T00:08:11.093Z,10.00
2018-09-06T00:10:43.032Z,9.90
2018-09-06T00:13:14.452Z,9.37
2018-09-06T00:15:46.755Z,8.87
2018-09-06T00:18:18.252Z,9.20
2018-09-06T00:20:50.232Z,9.77
2018-09-06T00:23:21.792Z,8.83
2018-09-06T00:25:54.012Z,9.27
2018-09-06T00:28:25.775Z,9.00
2018-09-06T00:30:57.560Z,9.20
2018-09-06T00:33:29.772Z,9.40
2018-09-06T00:36:02.172Z,9.33
2018-09-06T00:38:34.832Z,13.30
2018-09-06T00:41:06.352Z,9.67
2018-09-06T00:43:38.112Z,8.90
2018-09-06T00:46:10.772Z,8.80
2018-09-06T00:48:42.732Z,11.53
2018-09-06T00:51:14.252Z,10.10
2018-09-06T00:53:45.657Z,9.30
2018-09-06T00:56:16.952Z,10.37
2018-09-06T00:58:48.994Z,10.40
2018-09-06T01:01:20.792Z,11.10
2018-09-06T01:03:52.693Z,9.77
2018-09-06T01:06:23.514Z,9.80
2018-09-06T01:08:54.692Z,10.70
2018-09-06T01:11:26.655Z,9.17
2018-09-06T01:13:58.872Z,9.53
2018-09-06T01:16:30.912Z,8.97
2018-09-06T01:19:03.012Z,8.93
2018-09-06T01:21:34.433Z,9.10
2018-09-06T01:24:07.232Z,9.63
2018-09-06T01:26:38.711Z,9.20
2018-09-06T01:29:11.272Z,8.90
2018-09-06T01:31:43.592Z,8.83
2018-09-06T01:34:14.996Z,9.07
2018-09-06T01:36:46.941Z,8.60
2018-09-06T01:39:18.353Z,9.40
2018-09-06T01:41:50.452Z,9.40
2018-09-06T01:44:22.492Z,9.67
2018-09-06T01:46:53.993Z,14.70
2018-09-06T01:49:25.593Z,9.47
2018-09-06T01:51:57.112Z,9.20
2018-09-06T01:54:29.453Z,10.40
2018-09-06T01:57:00.673Z,9.80
2018-09-06T01:59:36.292Z,9.20
2018-09-06T02:02:07.992Z,9.30
2018-09-06T02:04:40.972Z,9.33
2018-09-06T02:07:13.532Z,9.90
2018-09-06T02:09:44.677Z,10.17
2018-09-06T02:12:17.372Z,9.93
2018-09-06T02:14:49.113Z,9.97
2018-09-06T02:17:21.755Z,9.43
2018-09-06T02:19:53.332Z,9.17
2018-09-06T02:22:25.492Z,12.13
2018-09-06T02:24:56.812Z,8.77
2018-09-06T02:27:28.854Z,9.47
2018-09-06T02:29:59.972Z,9.10
2018-09-06T02:32:32.213Z,9.57
2018-09-06T02:35:05.012Z,10.40
2018-09-06T02:37:37.452Z,10.20
2018-09-06T02:40:14.732Z,11.07
2018-09-06T02:42:46.812Z,9.27
2018-09-06T02:45:18.192Z,8.40
2018-09-06T02:47:54.613Z,10.47
2018-09-06T02:50:30.291Z,10.13
2018-09-06T02:53:02.334Z,10.13
2018-09-06T02:55:34.136Z,10.23
2018-09-06T02:58:05.992Z,9.63
2018-09-06T03:00:40.012Z,9.40
2018-09-06T03:03:12.471Z,9.70
2018-09-06T03:05:44.955Z,8.80
2018-09-06T03:08:16.613Z,11.67
2018-09-06T03:10:51.012Z,9.20
2018-09-06T03:13:23.114Z,9.90
2018-09-06T03:15:55.071Z,10.40
2018-09-06T03:18:26.832Z,9.53
2018-09-06T03:20:59.552Z,12.13
2018-09-06T03:23:31.053Z,9.67
2018-09-06T03:26:03.932Z,10.10
2018-09-06T03:28:34.892Z,11.73
2018-09-06T03:31:06.873Z,9.80
2018-09-06T03:33:38.713Z,9.50
2018-09-06T03:36:11.493Z,21.80
2018-09-06T03:38:43.232Z,10.57
2018-09-06T03:41:15.676Z,10.57
2018-09-06T03:43:47.132Z,9.20
2018-09-06T03:46:19.141Z,9.37
2018-09-06T03:48:51.073Z,8.83
2018-09-06T03:51:21.492Z,8.90
2018-09-06T03:53:52.853Z,9.60
2018-09-06T03:56:24.853Z,8.23
2018-09-06T03:58:56.374Z,9.80
2018-09-06T04:01:27.992Z,9.80
2018-09-06T04:03:59.393Z,9.37
2018-09-06T04:06:31.092Z,8.50
2018-09-06T04:09:03.073Z,9.67
2018-09-06T04:11:35.053Z,9.93
2018-09-06T04:14:06.572Z,9.87
2018-09-06T04:16:39.718Z,9.80
2018-09-06T04:19:11.732Z,8.97
2018-09-06T04:21:43.052Z,10.27
2018-09-06T04:24:15.429Z,10.47
2018-09-06T04:26:48.153Z,9.17
2018-09-06T04:29:19.852Z,9.37
2018-09-06T04:31:51.740Z,9.20
2018-09-06T04:34:23.692Z,9.03
2018-09-06T04:36:56.393Z,9.83
2018-09-06T04:39:28.333Z,20.27
2018-09-06T04:42:00.593Z,10.60
2018-09-06T04:44:31.673Z,11.10
2018-09-06T04:47:03.513Z,10.30
2018-09-06T04:49:34.973Z,9.40
2018-09-06T04:52:06.993Z,10.10
2018-09-06T04:54:38.234Z,10.10
2018-09-06T04:57:10.116Z,9.97
2018-09-06T04:59:41.213Z,16.50
2018-09-06T05:02:13.493Z,13.53
2018-09-06T05:04:45.596Z,10.70
2018-09-06T05:07:17.333Z,9.57
2018-09-06T05:09:48.953Z,9.33
2018-09-06T05:12:21.980Z,10.63
2018-09-06T05:14:53.475Z,11.30
2018-09-06T05:17:26.372Z,9.73
2018-09-06T05:19:57.913Z,17.03
2018-09-06T05:22:30.095Z,13.70
2018-09-06T05:25:01.812Z,12.97
2018-09-06T05:27:33.333Z,9.70
2018-09-06T05:30:04.733Z,12.00
2018-09-06T05:32:37.233Z,13.83
2018-09-06T05:35:08.781Z,12.50
2018-09-06T05:37:40.933Z,14.10
2018-09-06T05:40:13.673Z,11.23
2018-09-06T05:42:45.613Z,10.40
2018-09-06T05:45:17.153Z,11.67
2018-09-06T05:47:53.793Z,11.43
2018-09-06T05:50:25.794Z,13.73
2018-09-06T05:52:58.133Z,10.73
2018-09-06T05:55:30.553Z,13.20
2018-09-06T05:58:02.226Z,11.00
2018-09-06T06:00:38.553Z,17.90
2018-09-06T06:03:11.314Z,12.70
2018-09-06T06:05:43.133Z,10.40
2018-09-06T06:08:25.233Z,15.10
2018-09-06T06:10:56.975Z,10.60
2018-09-06T06:13:28.973Z,12.57
2018-09-06T06:16:00.180Z,11.53
2018-09-06T06:18:32.692Z,14.83
2018-09-06T06:21:04.337Z,11.67
2018-09-06T06:23:36.453Z,14.63
2018-09-06T06:26:08.594Z,16.67
2018-09-06T06:28:40.313Z,10.87
2018-09-06T06:31:13.013Z,18.30
2018-09-06T06:33:45.313Z,12.13
2018-09-06T06:36:18.595Z,12.70
2018-09-06T06:38:50.153Z,11.53
2018-09-06T06:41:22.793Z,11.70
2018-09-06T06:43:55.273Z,12.40
2018-09-06T06:46:27.096Z,11.60
2018-09-06T06:48:58.733Z,15.17
2018-09-06T06:51:29.653Z,12.10
2018-09-06T06:53:59.878Z,13.37
2018-09-06T06:56:31.201Z,11.80
2018-09-06T06:59:03.342Z,12.60
2018-09-06T07:01:35.201Z,12.27
2018-09-06T07:04:07.753Z,13.13
2018-09-06T07:06:40.026Z,12.47
2018-09-06T07:09:13.101Z,12.57
2018-09-06T07:11:47.618Z,11.90
2018-09-06T07:14:19.119Z,14.33
2018-09-06T07:16:51.120Z,11.30
2018-09-06T07:19:23.039Z,11.23
2018-09-06T07:21:54.702Z,16.53
2018-09-06T07:24:26.003Z,11.90
2018-09-06T07:26:57.802Z,12.40
2018-09-06T07:29:29.125Z,10.60
2018-09-06T07:32:01.275Z,9.60
2018-09-06T07:34:33.004Z,9.40
2018-09-06T07:37:05.244Z,9.30
2018-09-06T07:39:36.864Z,9.00
2018-09-06T07:42:08.181Z,8.37
2018-09-06T07:44:40.008Z,8.63
2018-09-06T07:47:11.989Z,13.50
2018-09-06T07:49:43.201Z,13.20
2018-09-06T07:52:15.028Z,8.93
2018-09-06T07:54:47.321Z,7.90
2018-09-06T07:57:20.381Z,11.00
2018-09-06T07:59:52.110Z,9.07
2018-09-06T08:02:23.856Z,8.23
2018-09-06T08:04:54.854Z,9.13
2018-09-06T08:07:27.396Z,14.33
2018-09-06T08:09:58.853Z,14.13
2018-09-06T08:12:30.733Z,8.43
2018-09-06T08:15:02.295Z,7.50
2018-09-06T08:17:34.093Z,8.87
2018-09-06T08:20:05.593Z,10.07
2018-09-06T08:22:37.881Z,12.17
2018-09-06T08:25:09.353Z,8.77
2018-09-06T08:27:41.493Z,9.90
2018-09-06T08:30:13.296Z,9.93
2018-09-06T08:32:45.372Z,9.93
2018-09-06T08:35:17.056Z,9.87
2018-09-06T08:37:49.813Z,9.43
2018-09-06T08:40:21.034Z,8.57
2018-09-06T08:42:53.133Z,10.50
2018-09-06T08:45:24.275Z,11.70
2018-09-06T08:47:56.773Z,12.73
2018-09-06T08:50:28.953Z,13.33
2018-09-06T09:00:05.353Z,15.20
2018-09-06T09:02:37.124Z,17.00
2018-09-06T09:05:08.914Z,18.13
2018-09-06T09:07:40.838Z,17.43
2018-09-06T09:10:12.045Z,18.30
2018-09-06T09:12:43.987Z,17.90
2018-09-06T09:15:15.205Z,19.23
2018-09-06T09:17:48.006Z,18.90
2018-09-06T09:20:19.626Z,19.13
2018-09-06T09:22:52.265Z,20.90
2018-09-06T09:25:23.455Z,18.10
2018-09-06T09:27:55.564Z,19.10
2018-09-06T09:30:26.763Z,19.87
2018-09-06T09:32:58.925Z,19.87
2018-09-06T09:35:30.326Z,20.90
2018-09-06T09:38:03.047Z,11.77
2018-09-06T09:40:34.225Z,20.43
2018-09-06T09:43:06.474Z,19.53
2018-09-06T09:45:37.973Z,20.90
2018-09-06T09:48:10.586Z,21.80
2018-09-06T09:53:13.664Z,22.17
2018-09-06T09:55:45.626Z,22.47
2018-09-06T09:58:17.814Z,22.90
2018-09-06T10:00:49.106Z,20.93
2018-09-06T10:03:24.738Z,21.33
2018-09-06T10:06:00.316Z,21.30
2018-09-06T10:08:36.776Z,21.77
2018-09-06T10:11:08.637Z,18.60
2018-09-06T10:13:40.297Z,21.50
2018-09-06T10:16:12.716Z,20.87
2018-09-06T10:18:43.902Z,19.10
2018-09-06T10:21:16.417Z,18.87
2018-09-06T10:23:48.636Z,19.97
2018-09-06T10:26:20.918Z,19.37
2018-09-06T10:28:53.635Z,20.90
2018-09-06T10:31:25.444Z,19.70
2018-09-06T10:33:56.664Z,20.57
2018-09-06T10:36:28.495Z,19.07
2018-09-06T10:39:00.476Z,19.90
2018-09-06T10:41:32.477Z,20.57
2018-09-06T10:44:04.276Z,21.20
2018-09-06T10:46:35.725Z,18.07
2018-09-06T10:49:07.876Z,18.37
2018-09-06T10:51:40.177Z,17.60
2018-09-06T10:54:12.096Z,18.27
2018-09-06T10:56:43.996Z,22.73
2018-09-06T10:59:15.916Z,17.50
2018-09-06T11:01:47.086Z,19.27
2018-09-06T11:04:19.483Z,17.83
2018-09-06T11:06:50.761Z,19.43
2018-09-06T11:09:23.204Z,20.60
2018-09-06T11:11:54.361Z,18.90
2018-09-06T11:14:25.800Z,20.73
2018-09-06T11:16:57.362Z,21.37
2018-09-06T11:19:28.930Z,17.77
2018-09-06T11:22:00.333Z,19.30
2018-09-06T11:24:32.027Z,16.40
2018-09-06T11:27:03.307Z,18.17
2018-09-06T11:29:34.946Z,19.27
2018-09-06T11:32:07.462Z,19.43
2018-09-06T11:34:39.013Z,18.67
2018-09-06T11:37:11.054Z,14.83
2018-09-06T11:39:43.033Z,16.13
2018-09-06T11:42:15.693Z,16.37
2018-09-06T11:44:47.427Z,19.40
2018-09-06T11:47:19.629Z,17.43
2018-09-06T11:49:52.678Z,14.17
2018-09-06T11:52:23.971Z,16.10
2018-09-06T11:54:56.033Z,15.37
2018-09-06T11:57:27.184Z,15.50
2018-09-06T11:59:58.714Z,13.90
2018-09-06T12:02:31.074Z,14.23
2018-09-06T12:05:02.756Z,12.07
2018-09-06T12:07:34.654Z,12.50
2018-09-06T12:10:06.362Z,12.50
2018-09-06T12:12:38.017Z,10.97
2018-09-06T12:15:10.079Z,10.90
2018-09-06T12:17:41.930Z,10.67
2018-09-06T12:20:14.110Z,10.80
2018-09-06T12:22:46.011Z,10.53
2018-09-06T12:25:18.229Z,10.27
2018-09-06T12:27:49.474Z,9.90
2018-09-06T12:30:22.650Z,9.53
2018-09-06T12:32:55.231Z,10.80
2018-09-06T12:35:26.751Z,11.50
2018-09-06T12:37:59.009Z,10.17
2018-09-06T12:40:31.010Z,11.30
2018-09-06T12:43:02.730Z,11.63
2018-09-06T12:45:34.071Z,11.50
2018-09-06T12:48:05.810Z,11.07
2018-09-06T12:50:37.430Z,11.00
2018-09-06T12:53:08.931Z,12.00
2018-09-06T12:55:41.030Z,11.50
2018-09-06T12:58:13.570Z,12.47
2018-09-06T13:00:45.370Z,13.07
2018-09-06T13:03:17.800Z,11.80
2018-09-06T13:05:49.130Z,12.60
2018-09-06T13:08:20.510Z,12.40
2018-09-06T13:10:52.430Z,13.97
2018-09-06T13:13:24.252Z,14.73
2018-09-06T13:15:56.747Z,13.33
2018-09-06T13:18:29.301Z,14.83
2018-09-06T13:21:01.636Z,16.13
2018-09-06T13:23:35.199Z,8.63
2018-09-06T13:26:06.883Z,9.47
2018-09-06T13:28:39.408Z,14.43
2018-09-06T13:31:12.468Z,15.63
2018-09-06T13:33:44.248Z,9.87
2018-09-06T13:36:16.148Z,11.50
2018-09-06T13:38:47.940Z,9.60
2018-09-06T13:41:19.722Z,10.97
2018-09-06T13:43:51.341Z,8.70
2018-09-06T13:46:24.659Z,11.67
2018-09-06T13:48:56.915Z,9.80
2018-09-06T13:51:28.330Z,9.03
2018-09-06T13:54:02.946Z,7.73
2018-09-06T13:56:35.275Z,8.37
2018-09-06T13:59:07.725Z,10.03
2018-09-06T14:01:39.336Z,11.47
2018-09-06T14:04:12.116Z,9.50
2018-09-06T14:06:43.266Z,8.10
2018-09-06T14:09:15.472Z,12.77
2018-09-06T14:11:46.612Z,9.37
2018-09-06T14:14:19.121Z,8.60
2018-09-06T14:16:50.943Z,12.00
2018-09-06T14:19:22.973Z,9.00
2018-09-06T14:21:54.084Z,10.30
2018-09-06T14:24:25.491Z,9.30
2018-09-06T14:26:56.927Z,9.57
2018-09-06T14:29:29.296Z,10.57
2018-09-06T14:32:01.249Z,10.50
2018-09-06T14:34:33.965Z,11.27
2018-09-06T14:37:06.161Z,9.53
2018-09-06T14:39:37.060Z,11.27
2018-09-06T14:42:08.220Z,10.07
2018-09-06T14:44:39.477Z,10.97
2018-09-06T14:47:11.078Z,11.00
2018-09-06T14:49:43.259Z,12.20
2018-09-06T14:52:14.955Z,11.37
2018-09-06T14:54:46.636Z,12.23
2018-09-06T14:57:18.589Z,14.43
2018-09-06T14:59:51.256Z,10.47
2018-09-06T15:02:22.797Z,11.80
2018-09-06T15:04:54.897Z,24.90
2018-09-06T15:07:26.196Z,11.73
2018-09-06T15:09:58.515Z,11.27
2018-09-06T15:12:30.769Z,12.10
2018-09-06T15:15:03.450Z,11.50
2018-09-06T15:17:35.709Z,12.70
2018-09-06T15:20:08.233Z,11.77
2018-09-06T15:22:40.349Z,12.63
2018-09-06T15:25:12.808Z,12.30
2018-09-06T15:27:46.909Z,13.43
2018-09-06T15:30:19.284Z,13.10
2018-09-06T15:32:51.044Z,14.20
2018-09-06T15:35:22.904Z,12.87
2018-09-06T15:37:55.589Z,12.70
2018-09-06T15:40:27.744Z,13.83
2018-09-06T15:43:01.324Z,13.30
2018-09-06T15:45:33.203Z,16.50
2018-09-06T15:48:05.085Z,17.77
2018-09-06T15:50:36.584Z,21.70
2018-09-06T15:53:09.764Z,18.73
2018-09-06T15:55:41.651Z,17.70
2018-09-06T15:58:13.107Z,18.57
2018-09-06T16:00:45.364Z,18.00
2018-09-06T16:03:18.124Z,28.73
2018-09-06T16:05:49.585Z,18.70
2018-09-06T16:08:21.002Z,19.77
2018-09-06T16:10:52.724Z,16.53
2018-09-06T16:13:25.985Z,17.03
2018-09-06T16:15:58.009Z,17.57
2018-09-06T16:18:30.564Z,21.97
2018-09-06T16:21:02.606Z,18.23
2018-09-06T16:23:34.283Z,16.97
2018-09-06T16:26:07.184Z,15.00
2018-09-06T16:28:39.253Z,17.20
2018-09-06T16:31:12.144Z,15.93
2018-09-06T16:33:44.325Z,16.33
2018-09-06T16:36:17.084Z,15.27
2018-09-06T16:38:50.106Z,15.17
2018-09-06T16:41:22.064Z,16.63
2018-09-06T16:43:53.985Z,15.67
2018-09-06T16:46:26.094Z,14.47
2018-09-06T16:48:59.826Z,15.70
2018-09-06T16:51:33.644Z,11.40
2018-09-06T16:54:06.744Z,16.70
2018-09-06T16:56:39.584Z,11.83
2018-09-06T16:59:11.983Z,11.67
2018-09-06T17:01:44.785Z,11.63
2018-09-06T17:04:19.744Z,11.77
2018-09-06T17:06:52.002Z,11.20
2018-09-06T17:09:24.344Z,11.30
2018-09-06T17:11:57.024Z,11.47
2018-09-06T17:14:29.309Z,10.47
2018-09-06T17:17:01.884Z,11.20
2018-09-06T17:19:36.064Z,11.67
2018-09-06T17:22:38.772Z,11.63
2018-09-06T17:25:10.945Z,11.63
2018-09-06T17:27:43.004Z,12.57
2018-09-06T17:30:15.407Z,12.87
2018-09-06T17:32:50.445Z,12.90
2018-09-06T17:35:23.764Z,16.20
2018-09-06T17:37:56.624Z,12.07
2018-09-06T17:40:32.144Z,12.27
2018-09-06T17:43:03.689Z,11.57
2018-09-06T17:45:36.084Z,11.10
2018-09-06T17:48:08.664Z,11.40
2018-09-06T17:50:40.565Z,11.53
2018-09-06T17:53:13.417Z,12.83
2018-09-06T17:55:45.964Z,12.90
2018-09-06T17:58:18.083Z,11.57
2018-09-06T18:00:57.704Z,13.73
2018-09-06T18:03:30.607Z,11.73
2018-09-06T18:06:03.203Z,12.13
2018-09-06T18:08:56.144Z,12.57
2018-09-06T18:14:35.444Z,12.87
2018-09-06T18:17:07.689Z,12.03
2018-09-06T18:19:41.124Z,11.50
2018-09-06T18:22:13.688Z,12.03
2018-09-06T18:24:46.643Z,11.73
2018-09-06T18:27:18.884Z,11.80
2018-09-06T18:30:22.144Z,12.17
2018-09-06T18:32:57.164Z,12.13
2018-09-06T18:35:29.604Z,13.30
2018-09-06T18:38:02.804Z,12.30
2018-09-06T18:40:38.964Z,14.17
2018-09-06T18:43:12.144Z,12.83
2018-09-06T18:46:49.324Z,12.77
2018-09-06T18:49:23.983Z,13.57
2018-09-06T18:51:57.803Z,12.80
2018-09-06T18:54:30.003Z,13.70
2018-09-06T18:57:02.185Z,13.77
2018-09-06T18:59:36.664Z,13.43
2018-09-06T19:02:09.431Z,12.30
2018-09-06T19:04:46.944Z,9.43
2018-09-06T19:07:20.144Z,7.80
2018-09-06T19:09:54.384Z,8.17
2018-09-06T19:12:26.243Z,8.37
2018-09-06T19:18:09.104Z,5.57
2018-09-06T19:20:43.624Z,7.23
2018-09-06T19:26:27.025Z,7.00
2018-09-06T19:29:30.763Z,6.93
2018-09-06T19:32:03.406Z,7.00
2018-09-06T19:34:35.484Z,9.17
2018-09-06T19:37:07.339Z,10.13
2018-09-06T19:39:47.964Z,7.30
2018-09-06T19:42:22.923Z,7.57
2018-09-06T19:44:55.987Z,8.53
2018-09-06T19:47:45.243Z,5.73
2018-09-06T19:50:20.725Z,6.63
2018-09-06T19:52:51.944Z,7.10
2018-09-06T19:55:29.364Z,8.00
2018-09-06T19:58:02.644Z,8.57
2018-09-06T20:00:38.564Z,14.60
2018-09-06T20:03:13.306Z,13.23
2018-09-06T20:05:45.948Z,12.73
2018-09-06T20:08:18.969Z,11.70
2018-09-06T20:10:53.945Z,12.77
2018-09-06T20:13:25.583Z,11.07
2018-09-06T20:15:57.104Z,14.70
2018-09-06T20:18:29.465Z,13.17
2018-09-06T20:21:02.495Z,12.13
2018-09-06T20:23:34.343Z,12.00
2018-09-06T20:26:06.825Z,11.83
2018-09-06T20:28:39.465Z,11.83
2018-09-06T20:31:11.826Z,13.20
2018-09-06T20:33:46.223Z,14.97
2018-09-06T20:36:18.484Z,13.67
2018-09-06T20:38:54.123Z,14.60
2018-09-06T20:41:27.506Z,13.00
2018-09-06T20:43:58.645Z,12.37
2018-09-06T20:46:32.144Z,10.17
2018-09-06T20:49:04.644Z,11.40
2018-09-06T20:51:38.064Z,8.30
2018-09-06T20:54:13.664Z,8.90
2018-09-06T20:56:47.326Z,8.73
2018-09-06T20:59:19.898Z,7.37
2018-09-06T21:01:53.012Z,6.83
2018-09-06T21:07:34.884Z,6.93
2018-09-06T21:10:09.764Z,8.60
2018-09-06T21:12:41.587Z,8.43
2018-09-06T21:15:42.604Z,8.57
2018-09-06T21:18:14.964Z,9.90
2018-09-06T21:20:47.025Z,9.80
2018-09-06T21:23:20.933Z,6.77
2018-09-06T21:25:53.764Z,7.30
2018-09-06T21:28:28.585Z,8.03
2018-09-06T21:31:00.504Z,7.03
2018-09-06T21:33:32.844Z,6.90
2018-09-06T21:36:04.726Z,8.70
2018-09-06T21:38:36.863Z,7.07
2018-09-06T21:41:08.884Z,7.33
2018-09-06T21:43:41.524Z,8.53
2018-09-06T21:46:13.804Z,7.60
2018-09-06T21:48:45.403Z,7.67
2018-09-06T21:51:17.616Z,7.50
2018-09-06T21:53:49.483Z,7.13
2018-09-06T21:56:21.723Z,7.00
2018-09-06T21:58:53.205Z,7.37
2018-09-06T22:01:25.344Z,7.20
2018-09-06T22:04:01.565Z,7.33
2018-09-06T22:06:33.943Z,8.60
2018-09-06T22:09:07.264Z,11.17
2018-09-06T22:11:39.523Z,10.07
2018-09-06T22:14:12.003Z,12.10
2018-09-06T22:16:43.243Z,11.07
2018-09-06T22:19:15.363Z,9.83
2018-09-06T22:21:46.923Z,9.80
2018-09-06T22:24:19.083Z,9.90
2018-09-06T22:26:52.203Z,9.10
2018-09-06T22:29:24.103Z,9.33
2018-09-06T22:31:55.942Z,8.83
2018-09-06T22:34:27.343Z,9.60
2018-09-06T22:37:00.005Z,8.83
2018-09-06T22:39:31.024Z,10.20
2018-09-06T22:42:03.883Z,6.70
2018-09-06T22:44:35.243Z,6.83
2018-09-06T22:47:07.563Z,7.50
2018-09-06T22:49:38.823Z,6.20
2018-09-06T22:52:11.123Z,6.60
2018-09-06T22:54:42.886Z,8.40
2018-09-06T22:57:14.898Z,6.80
2018-09-06T22:59:46.463Z,7.27
2018-09-06T23:02:18.344Z,8.17
2018-09-06T23:04:49.763Z,6.73
2018-09-06T23:07:22.256Z,6.30
2018-09-06T23:09:53.447Z,6.10
2018-09-06T23:12:26.444Z,6.20
2018-09-06T23:14:59.523Z,6.53
2018-09-06T23:17:32.524Z,5.67
2018-09-06T23:20:04.103Z,5.80
2018-09-06T23:22:38.863Z,5.80
2018-09-06T23:25:11.044Z,5.20
2018-09-06T23:27:43.083Z,5.50
2018-09-06T23:30:14.544Z,5.23
2018-09-06T23:32:47.044Z,5.23
2018-09-06T23:35:18.543Z,5.00
2018-09-06T23:37:50.324Z,5.77
2018-09-06T23:40:21.284Z,6.00
2018-09-06T23:42:52.789Z,4.97
2018-09-06T23:45:24.903Z,5.90
2018-09-06T23:47:56.724Z,6.90
2018-09-06T23:50:28.804Z,6.57
2018-09-06T23:53:01.286Z,7.07
2018-09-06T23:55:33.104Z,6.77
2018-09-06T23:58:05.084Z,7.30
